Yellowfin — WCW2778 — position and weather

sailwx.info

Track history (hours):
 
Tides and Currents Weather Stations Pressure Air Temp Water Temp Dewpoint Dewpoint Depression Visibility Wind Speed Wind Dir Waves Ship Positions

Oceanographic research ship Yellowfin (USA)

Detailed information on ship capabilities available from University of Delaware's Ocean Information Center.

Owner: CALIFORNIA STATE UNIVERSITY, TERMINAL ISLAND, CA. More information available from US FCC via Universal Licensing System and Coast Guard Vessel Documentation Center.

Last reported at 2018-Dec-12 22:47 UTC. Time now 2018-Dec-13 15:17 UTC.
Position N 33°44' W 118°16'.

; draft 2.5 m.

Type: Other ship. MMSI: 367000160.

Date/timePositionNaut miles runAvg speedWind from/ knotsBaromVisibWave heightAir tempDewpointWater temp
2018-Dec-12 22:47N 33°44' W 118°16'2 6.7
2018-Dec-12 22:30N 33°42' W 118°15'4 7.8
2018-Dec-12 22:01N 33°40' W 118°19'5 7.9
2018-Dec-12 21:22N 33°36' W 118°23'3 6.2
2018-Dec-12 20:49N 33°34' W 118°26'0 1.5
2018-Dec-12 20:31N 33°34' W 118°25'1 1.0
2018-Dec-12 19:57N 33°33' W 118°24'1 0.9
2018-Dec-12 19:21N 33°34' W 118°25'0 0.3
2018-Dec-12 18:26N 33°34' W 118°25'1 1.2
2018-Dec-12 18:00N 33°33' W 118°25'1 0.8
2018-Dec-12 17:09N 33°33' W 118°24'2 8.1
2018-Dec-12 16:51N 33°35' W 118°22'3 8.2
2018-Dec-12 16:30N 33°37' W 118°20'4 8.4
2018-Dec-12 16:00N 33°40' W 118°17'3 7.0
2018-Dec-12 15:30N 33°44' W 118°16'0 0.8
2018-Dec-12 15:00N 33°44' W 118°16'0 0.0
2018-Dec-11 23:23N 33°44' W 118°16'1 1.9
2018-Dec-11 23:00N 33°45' W 118°16'1 2.7
2018-Dec-11 22:30N 33°46' W 118°16'2 4.3
2018-Dec-11 22:00N 33°44' W 118°16'0 0.8
2018-Dec-11 21:30N 33°44' W 118°16'1 1.9
2018-Dec-11 21:00N 33°43' W 118°16'1 2.4
2018-Dec-11 20:30N 33°42' W 118°15'2 3.4
2018-Dec-11 19:59N 33°43' W 118°17'1 1.5
2018-Dec-11 19:30N 33°44' W 118°17'0 0.5
2018-Dec-11 19:00N 33°44' W 118°16'2 4.1
2018-Dec-11 18:30N 33°46' W 118°17'1 1.6
2018-Dec-11 18:00N 33°45' W 118°16'  
Track history (hours):
 
Tides and Currents Weather Stations Pressure Air Temp Water Temp Dewpoint Dewpoint Depression Visibility Wind Speed Wind Dir Waves Ship Positions

Oceanographic research ship Yellowfin (USA)

Detailed information on ship capabilities available from University of Delaware's Ocean Information Center.

Owner: CALIFORNIA STATE UNIVERSITY, TERMINAL ISLAND, CA. More information available from US FCC via Universal Licensing System and Coast Guard Vessel Documentation Center.

Last reported at 2018-Dec-12 22:47 UTC. Time now 2018-Dec-13 15:17 UTC.
Position N 33°44' W 118°16'.

; draft 2.5 m.

Type: Other ship. MMSI: 367000160.

Date/timePositionNaut miles runAvg speedWind from/ knotsBaromVisibWave heightAir tempDewpointWater temp
2018-Dec-12 22:47N 33°44' W 118°16'2 6.7
2018-Dec-12 22:30N 33°42' W 118°15'4 7.8
2018-Dec-12 22:01N 33°40' W 118°19'5 7.9
2018-Dec-12 21:22N 33°36' W 118°23'3 6.2
2018-Dec-12 20:49N 33°34' W 118°26'0 1.5
2018-Dec-12 20:31N 33°34' W 118°25'1 1.0
2018-Dec-12 19:57N 33°33' W 118°24'1 0.9
2018-Dec-12 19:21N 33°34' W 118°25'0 0.3
2018-Dec-12 18:26N 33°34' W 118°25'1 1.2
2018-Dec-12 18:00N 33°33' W 118°25'1 0.8
2018-Dec-12 17:09N 33°33' W 118°24'2 8.1
2018-Dec-12 16:51N 33°35' W 118°22'3 8.2
2018-Dec-12 16:30N 33°37' W 118°20'4 8.4
2018-Dec-12 16:00N 33°40' W 118°17'3 7.0
2018-Dec-12 15:30N 33°44' W 118°16'0 0.8
2018-Dec-12 15:00N 33°44' W 118°16'0 0.0
2018-Dec-11 23:23N 33°44' W 118°16'1 1.9
2018-Dec-11 23:00N 33°45' W 118°16'1 2.7
2018-Dec-11 22:30N 33°46' W 118°16'2 4.3
2018-Dec-11 22:00N 33°44' W 118°16'0 0.8
2018-Dec-11 21:30N 33°44' W 118°16'1 1.9
2018-Dec-11 21:00N 33°43' W 118°16'1 2.4
2018-Dec-11 20:30N 33°42' W 118°15'2 3.4
2018-Dec-11 19:59N 33°43' W 118°17'1 1.5
2018-Dec-11 19:30N 33°44' W 118°17'0 0.5
2018-Dec-11 19:00N 33°44' W 118°16'2 4.1
2018-Dec-11 18:30N 33°46' W 118°17'1 1.6
2018-Dec-11 18:00N 33°45' W 118°16'  

Dump ship's entire track history